createdAt,value
2023-10-19T00:01:01.552Z,10
2023-10-19T00:02:06.711Z,10
2023-10-19T00:03:12.852Z,10
2023-10-19T00:04:18.981Z,10
2023-10-19T00:05:25.137Z,10
2023-10-19T00:06:31.281Z,10
2023-10-19T00:07:37.456Z,10
2023-10-19T00:08:43.553Z,10
2023-10-19T00:09:49.733Z,10
2023-10-19T00:10:55.860Z,10
2023-10-19T00:12:02.008Z,10
2023-10-19T00:13:08.192Z,10
2023-10-19T00:14:14.278Z,10
2023-10-19T00:15:20.538Z,10
2023-10-19T00:16:25.620Z,10
2023-10-19T00:17:31.739Z,10
2023-10-19T00:18:37.870Z,10
2023-10-19T00:19:44.001Z,10
2023-10-19T00:20:50.161Z,10
2023-10-19T00:21:56.298Z,10
2023-10-19T00:23:02.465Z,10.1
2023-10-19T00:25:14.765Z,10.1
2023-10-19T00:26:20.878Z,10.1
2023-10-19T00:27:27.008Z,10.1
2023-10-19T00:28:33.164Z,10.1
2023-10-19T00:29:39.301Z,10.1
2023-10-19T00:30:44.472Z,10.1
2023-10-19T00:31:50.676Z,10.1
2023-10-19T00:32:56.756Z,10.1
2023-10-19T00:34:02.897Z,10.1
2023-10-19T00:35:09.102Z,10.1
2023-10-19T00:36:15.198Z,10.1
2023-10-19T00:37:21.317Z,10.1
2023-10-19T00:38:27.461Z,10.1
2023-10-19T00:39:33.623Z,10.1
2023-10-19T00:40:39.755Z,10.1
2023-10-19T00:41:45.885Z,10.1
2023-10-19T00:42:52.076Z,10.1
2023-10-19T00:43:58.174Z,10.1
2023-10-19T00:45:03.336Z,10.1
2023-10-19T00:46:09.484Z,10.1
2023-10-19T00:47:15.677Z,10.1
2023-10-19T00:48:21.770Z,10.1
2023-10-19T00:49:27.905Z,10.1
2023-10-19T00:50:34.065Z,10.1
2023-10-19T00:51:40.211Z,10.1
2023-10-19T00:52:46.350Z,10.1
2023-10-19T00:53:52.513Z,10.1
2023-10-19T00:54:58.639Z,10.1
2023-10-19T00:56:04.791Z,10.1
2023-10-19T00:57:10.909Z,10.1
2023-10-19T00:58:17.059Z,10.1
2023-10-19T00:59:22.215Z,10.1
2023-10-19T01:00:28.381Z,10.1
2023-10-19T01:01:34.497Z,10.1
2023-10-19T01:02:40.664Z,10.1
2023-10-19T01:03:46.786Z,10.1
2023-10-19T01:04:52.986Z,10.1
2023-10-19T01:05:59.078Z,10.1
2023-10-19T01:07:05.318Z,10.2
2023-10-19T01:08:11.359Z,10.2
2023-10-19T01:09:17.497Z,10.1
2023-10-19T01:10:23.649Z,10.1
2023-10-19T01:11:29.794Z,10.1
2023-10-19T01:12:36.022Z,10.1
2023-10-19T01:13:41.093Z,10.1
2023-10-19T01:14:47.245Z,10.1
2023-10-19T01:15:53.399Z,10
2023-10-19T01:16:59.545Z,10
2023-10-19T01:18:05.665Z,10
2023-10-19T01:19:11.890Z,10
2023-10-19T01:20:17.957Z,10
2023-10-19T01:21:24.125Z,9.9
2023-10-19T01:22:30.264Z,9.9
2023-10-19T01:23:36.400Z,10
2023-10-19T01:24:42.521Z,10
2023-10-19T01:25:48.660Z,10
2023-10-19T01:26:54.819Z,10
2023-10-19T01:27:59.967Z,10
2023-10-19T01:29:06.113Z,10
2023-10-19T01:30:12.260Z,10
2023-10-19T01:31:18.400Z,10
2023-10-19T01:32:24.573Z,10.1
2023-10-19T01:33:30.686Z,10.1
2023-10-19T01:34:35.857Z,10.1
2023-10-19T01:35:41.998Z,10.1
2023-10-19T01:36:48.133Z,10.1
2023-10-19T01:37:54.290Z,10.1
2023-10-19T01:39:00.411Z,10
2023-10-19T01:40:06.586Z,10
2023-10-19T01:41:12.709Z,10
2023-10-19T01:42:18.922Z,10
2023-10-19T01:43:24.989Z,10
2023-10-19T01:44:31.133Z,10
2023-10-19T01:45:37.273Z,10.1
2023-10-19T01:46:43.436Z,10.1
2023-10-19T01:47:49.632Z,10.1
2023-10-19T01:48:54.743Z,10.1
2023-10-19T01:50:00.867Z,10.2
2023-10-19T01:51:07.007Z,10.2
2023-10-19T01:52:13.169Z,10.2
2023-10-19T01:53:19.296Z,10.2
2023-10-19T01:54:25.461Z,10.2
2023-10-19T01:55:31.598Z,10.2
2023-10-19T01:56:38.015Z,10.2
2023-10-19T01:57:43.906Z,10.2
2023-10-19T01:58:50.012Z,10.2
2023-10-19T01:59:56.170Z,10.3
2023-10-19T02:01:02.303Z,10.3
2023-10-19T02:02:08.468Z,10.2
2023-10-19T02:03:13.677Z,10.2
2023-10-19T02:04:19.754Z,10.2
2023-10-19T02:05:25.886Z,10.2
2023-10-19T02:06:32.053Z,10.2
2023-10-19T02:07:38.173Z,10.2
2023-10-19T02:08:44.312Z,10.2
2023-10-19T02:09:50.455Z,10.2
2023-10-19T02:12:02.779Z,10.2
2023-10-19T02:13:08.946Z,10.2
2023-10-19T02:14:15.035Z,10.2
2023-10-19T02:15:21.184Z,10.2
2023-10-19T02:16:27.311Z,10.3
2023-10-19T02:17:32.466Z,10.2
2023-10-19T02:18:38.653Z,10.3
2023-10-19T02:19:44.776Z,10.3
2023-10-19T02:20:50.911Z,10.3
2023-10-19T02:21:57.057Z,10.3
2023-10-19T02:23:03.198Z,10.3
2023-10-19T02:24:09.346Z,10.3
2023-10-19T02:25:15.497Z,10.4
2023-10-19T02:26:21.644Z,10.4
2023-10-19T02:27:27.804Z,10.4
2023-10-19T02:28:33.917Z,10.4
2023-10-19T02:29:40.061Z,10.4
2023-10-19T02:30:46.210Z,10.4
2023-10-19T02:31:51.370Z,10.4
2023-10-19T02:32:57.519Z,10.4
2023-10-19T02:34:03.653Z,10.4
2023-10-19T02:35:09.791Z,10.4
2023-10-19T02:36:15.935Z,10.4
2023-10-19T02:37:22.081Z,10.4
2023-10-19T02:38:28.230Z,10.4
2023-10-19T02:39:34.376Z,10.4
2023-10-19T02:40:40.503Z,10.4
2023-10-19T02:41:46.666Z,10.4
2023-10-19T02:42:52.836Z,10.4
2023-10-19T02:43:59.012Z,10.4
2023-10-19T02:45:05.085Z,10.4
2023-10-19T02:46:10.247Z,10.4
2023-10-19T02:47:16.425Z,10.4
2023-10-19T02:48:22.648Z,10.4
2023-10-19T02:49:28.664Z,10.4
2023-10-19T02:50:34.815Z,10.4
2023-10-19T02:51:40.963Z,10.4
2023-10-19T02:52:47.102Z,10.4
2023-10-19T02:53:53.252Z,10.4
2023-10-19T02:54:59.421Z,10.4
2023-10-19T02:56:05.549Z,10.4
2023-10-19T02:57:11.725Z,10.4
2023-10-19T02:58:17.845Z,10.4
2023-10-19T02:59:23.965Z,10.4
2023-10-19T03:00:29.143Z,10.4
2023-10-19T03:01:35.272Z,10.4
2023-10-19T03:02:41.431Z,10.4
2023-10-19T03:03:47.554Z,10.4
2023-10-19T03:04:53.723Z,10.4
2023-10-19T03:05:59.840Z,10.4
2023-10-19T03:07:05.994Z,10.4
2023-10-19T03:08:12.121Z,10.4
2023-10-19T03:09:18.267Z,10.4
2023-10-19T03:10:24.526Z,10.4
2023-10-19T03:11:30.733Z,10.4
2023-10-19T03:12:36.815Z,10.4
2023-10-19T03:13:42.961Z,10.4
2023-10-19T03:14:48.125Z,10.4
2023-10-19T03:15:54.267Z,10.4
2023-10-19T03:17:00.461Z,10.4
2023-10-19T03:18:06.597Z,10.4
2023-10-19T03:19:12.687Z,10.4
2023-10-19T03:20:18.830Z,10.4
2023-10-19T03:21:24.973Z,10.4
2023-10-19T03:22:31.243Z,10.4
2023-10-19T03:23:37.254Z,10.4
2023-10-19T03:24:43.460Z,10.4
2023-10-19T03:25:49.554Z,10.4
2023-10-19T03:26:55.688Z,10.4
2023-10-19T03:28:01.828Z,10.3
2023-10-19T03:29:06.986Z,10.3
2023-10-19T03:30:13.127Z,10.3
2023-10-19T03:31:19.263Z,10.2
2023-10-19T03:32:25.426Z,10.2
2023-10-19T03:34:37.702Z,10.3
2023-10-19T03:35:43.876Z,10.3
2023-10-19T03:36:49.980Z,10.2
2023-10-19T03:37:56.126Z,10.3
2023-10-19T03:39:02.282Z,10.3
2023-10-19T03:40:08.476Z,10.3
2023-10-19T03:41:14.625Z,10.3
2023-10-19T03:42:20.765Z,10.3
2023-10-19T03:43:25.916Z,10.4
2023-10-19T03:44:32.074Z,10.4
2023-10-19T03:45:38.202Z,10.4
2023-10-19T03:46:44.363Z,10.5
2023-10-19T03:47:50.491Z,10.5
2023-10-19T03:48:56.634Z,10.5
2023-10-19T03:50:02.796Z,10.5
2023-10-19T03:51:08.919Z,10.5
2023-10-19T03:52:15.064Z,10.6
2023-10-19T03:53:21.199Z,10.6
2023-10-19T03:54:27.376Z,10.6
2023-10-19T03:55:33.509Z,10.6
2023-10-19T03:56:39.635Z,10.6
2023-10-19T03:57:44.822Z,10.6
2023-10-19T03:58:50.945Z,10.5
2023-10-19T03:59:57.094Z,10.5
2023-10-19T04:01:03.239Z,10.5
2023-10-19T04:02:09.402Z,10.5
2023-10-19T04:03:15.510Z,10.5
2023-10-19T04:04:21.670Z,10.5
2023-10-19T04:05:27.840Z,10.5
2023-10-19T04:06:34.018Z,10.5
2023-10-19T04:07:40.098Z,10.5
2023-10-19T04:08:46.230Z,10.5
2023-10-19T04:09:52.385Z,10.5
2023-10-19T04:10:58.550Z,10.5
2023-10-19T04:12:03.706Z,10.5
2023-10-19T04:13:09.826Z,10.5
2023-10-19T04:14:15.973Z,10.5
2023-10-19T04:15:22.122Z,10.5
2023-10-19T04:16:28.258Z,10.5
2023-10-19T04:17:34.421Z,10.5
2023-10-19T04:18:40.563Z,10.5
2023-10-19T04:19:46.692Z,10.5
2023-10-19T04:20:52.858Z,10.5
2023-10-19T04:21:58.986Z,10.5
2023-10-19T04:24:11.270Z,10.6
2023-10-19T04:25:17.546Z,10.6
2023-10-19T04:26:22.577Z,10.6
2023-10-19T04:27:28.708Z,10.6
2023-10-19T04:28:34.851Z,10.6
2023-10-19T04:29:41.004Z,10.6
2023-10-19T04:30:47.143Z,10.6
2023-10-19T04:31:53.278Z,10.6
2023-10-19T04:32:59.432Z,10.6
2023-10-19T04:34:05.583Z,10.6
2023-10-19T04:35:11.732Z,10.6
2023-10-19T04:36:17.888Z,10.6
2023-10-19T04:37:23.994Z,10.6
2023-10-19T04:38:30.139Z,10.6
2023-10-19T04:39:36.319Z,10.6
2023-10-19T04:40:42.445Z,10.7
2023-10-19T04:42:53.731Z,11
2023-10-19T04:43:59.867Z,11.1
2023-10-19T04:45:06.012Z,11.3
2023-10-19T04:46:12.174Z,11.3
2023-10-19T04:47:18.303Z,11.5
2023-10-19T04:48:24.475Z,11.6
2023-10-19T04:49:30.581Z,11.6
2023-10-19T04:50:36.764Z,11.5
2023-10-19T04:51:42.870Z,11.4
2023-10-19T04:52:49.119Z,11.3
2023-10-19T04:53:55.332Z,11.3
2023-10-19T04:55:01.455Z,11.2
2023-10-19T04:56:06.623Z,11.2
2023-10-19T04:57:12.756Z,11.2
2023-10-19T04:58:18.889Z,11.2
2023-10-19T04:59:25.023Z,11.1
2023-10-19T05:00:31.175Z,11.1
2023-10-19T05:01:37.314Z,11
2023-10-19T05:02:43.439Z,11
2023-10-19T05:03:49.623Z,10.9
2023-10-19T05:04:55.744Z,10.9
2023-10-19T05:06:01.912Z,10.8
2023-10-19T05:07:08.047Z,10.8
2023-10-19T05:08:14.182Z,10.8
2023-10-19T05:09:20.305Z,10.8
2023-10-19T05:11:31.630Z,10.7
2023-10-19T05:12:37.782Z,10.7
2023-10-19T05:13:43.890Z,10.7
2023-10-19T05:14:50.038Z,10.6
2023-10-19T05:15:55.425Z,10.6
2023-10-19T05:17:01.344Z,10.6
2023-10-19T05:18:07.491Z,10.6
2023-10-19T05:19:13.644Z,10.6
2023-10-19T05:21:25.920Z,10.6
2023-10-19T05:22:32.054Z,10.7
2023-10-19T05:23:38.216Z,10.7
2023-10-19T05:24:44.349Z,10.7
2023-10-19T05:25:50.485Z,10.8
2023-10-19T05:26:56.632Z,10.8
2023-10-19T05:28:02.771Z,10.8
2023-10-19T05:29:08.965Z,10.8
2023-10-19T05:31:21.314Z,10.8
2023-10-19T05:32:26.441Z,10.8
2023-10-19T05:33:31.546Z,10.8
2023-10-19T05:34:37.696Z,10.8
2023-10-19T05:35:43.818Z,10.8
2023-10-19T05:36:49.976Z,10.8
2023-10-19T05:37:56.125Z,10.8
2023-10-19T05:39:02.252Z,10.8
2023-10-19T05:40:08.432Z,10.8
2023-10-19T05:41:14.552Z,10.8
2023-10-19T05:42:20.676Z,10.9
2023-10-19T05:43:25.861Z,10.9
2023-10-19T05:44:31.037Z,10.9
2023-10-19T05:45:37.185Z,10.9
2023-10-19T05:46:43.290Z,10.9
2023-10-19T05:47:49.464Z,10.9
2023-10-19T05:48:55.584Z,10.9
2023-10-19T05:50:01.756Z,10.9
2023-10-19T05:51:07.869Z,10.9
2023-10-19T05:52:14.032Z,11
2023-10-19T05:53:20.189Z,11
2023-10-19T05:54:26.296Z,11
2023-10-19T05:55:32.439Z,11
2023-10-19T05:56:38.600Z,11
2023-10-19T05:57:44.725Z,11
2023-10-19T05:58:49.894Z,11
2023-10-19T05:59:56.031Z,11
2023-10-19T06:01:02.207Z,11
2023-10-19T06:02:08.347Z,11
2023-10-19T06:03:14.472Z,11.1
2023-10-19T06:04:20.613Z,11.1
2023-10-19T06:05:26.742Z,11.1
2023-10-19T06:06:32.890Z,11.1
2023-10-19T06:07:39.031Z,11.2
2023-10-19T06:08:45.206Z,11.2
2023-10-19T06:09:51.311Z,11.2
2023-10-19T06:10:57.484Z,11.2
2023-10-19T06:12:03.599Z,11.2
2023-10-19T06:13:08.763Z,11.2
2023-10-19T06:14:14.908Z,11.2
2023-10-19T06:15:21.046Z,11.2
2023-10-19T06:16:27.191Z,11.3
2023-10-19T06:17:33.533Z,11.3
2023-10-19T06:18:39.497Z,11.3
2023-10-19T06:19:45.665Z,11.3
2023-10-19T06:20:51.767Z,11.3
2023-10-19T06:21:57.902Z,11.3
2023-10-19T06:23:04.074Z,11.3
2023-10-19T06:24:10.206Z,11.3
2023-10-19T06:25:16.403Z,11.3
2023-10-19T06:26:22.491Z,11.3
2023-10-19T06:27:27.639Z,11.4
2023-10-19T06:28:33.816Z,11.4
2023-10-19T06:29:39.948Z,11.4
2023-10-19T06:30:46.163Z,11.4
2023-10-19T06:31:52.215Z,11.4
2023-10-19T06:32:58.372Z,11.4
2023-10-19T06:34:04.511Z,11.4
2023-10-19T06:35:10.776Z,11.4
2023-10-19T06:36:16.909Z,11.4
2023-10-19T06:37:23.172Z,11.4
2023-10-19T06:38:29.229Z,11.4
2023-10-19T06:39:35.329Z,11.4
2023-10-19T06:40:41.493Z,11.3
2023-10-19T06:41:46.710Z,11.4
2023-10-19T06:42:52.783Z,11.4
2023-10-19T06:43:58.937Z,11.4
2023-10-19T06:45:05.059Z,11.4
2023-10-19T06:46:11.203Z,11.5
2023-10-19T06:47:17.352Z,11.5
2023-10-19T06:48:23.488Z,11.6
2023-10-19T06:49:29.659Z,11.7
2023-10-19T06:50:35.811Z,11.7
2023-10-19T06:51:41.937Z,11.7
2023-10-19T06:52:48.098Z,11.8
2023-10-19T06:53:54.287Z,11.8
2023-10-19T06:55:00.336Z,11.8
2023-10-19T06:56:05.535Z,11.8
2023-10-19T06:57:11.653Z,11.8
2023-10-19T06:58:17.790Z,11.9
2023-10-19T06:59:23.939Z,11.8
2023-10-19T07:00:30.130Z,11.8
2023-10-19T07:01:36.234Z,11.8
2023-10-19T07:02:42.379Z,11.8
2023-10-19T07:03:48.606Z,11.9
2023-10-19T07:04:54.647Z,11.9
2023-10-19T07:06:00.816Z,11.9
2023-10-19T07:07:06.944Z,11.9
2023-10-19T07:08:13.164Z,12
2023-10-19T07:09:19.245Z,12
2023-10-19T07:10:24.383Z,12
2023-10-19T07:11:30.567Z,12
2023-10-19T07:12:36.676Z,12
2023-10-19T07:13:42.824Z,12.1
2023-10-19T07:14:48.992Z,12.1
2023-10-19T07:15:55.134Z,12.1
2023-10-19T07:17:01.280Z,12.1
2023-10-19T07:18:07.464Z,12.1
2023-10-19T07:19:13.587Z,12
2023-10-19T07:20:19.734Z,12
2023-10-19T07:21:25.848Z,12
2023-10-19T07:22:32.004Z,12
2023-10-19T07:23:38.162Z,12
2023-10-19T07:24:43.304Z,12
2023-10-19T07:25:49.465Z,12
2023-10-19T07:26:55.825Z,11.9
2023-10-19T07:28:01.792Z,11.9
2023-10-19T07:29:07.885Z,11.9
2023-10-19T07:30:14.052Z,11.9
2023-10-19T07:31:20.185Z,11.9
2023-10-19T07:32:26.300Z,12
2023-10-19T07:33:32.487Z,12
2023-10-19T07:34:38.576Z,12
2023-10-19T07:35:44.805Z,12
2023-10-19T07:36:50.934Z,12.1
2023-10-19T07:37:57.024Z,12.1
2023-10-19T07:39:02.188Z,12.1
2023-10-19T07:40:08.305Z,12.2
2023-10-19T07:41:14.481Z,12.2
2023-10-19T07:42:20.597Z,12.3
2023-10-19T07:43:26.762Z,12.3
2023-10-19T07:44:32.878Z,12.3
2023-10-19T07:45:39.034Z,12.2
2023-10-19T07:46:45.176Z,12.2
2023-10-19T07:47:51.304Z,12.2
2023-10-19T07:48:57.488Z,12.2
2023-10-19T07:50:03.616Z,12.2
2023-10-19T07:51:09.775Z,12.2
2023-10-19T07:52:15.886Z,12.2
2023-10-19T07:53:21.061Z,12.2
2023-10-19T07:54:27.184Z,12.2
2023-10-19T07:55:33.336Z,12.2
2023-10-19T07:56:39.502Z,12.3
2023-10-19T07:57:45.647Z,12.3
2023-10-19T07:58:51.784Z,12.3
2023-10-19T07:59:57.904Z,12.3
2023-10-19T08:01:04.049Z,12.3
2023-10-19T08:02:10.196Z,12.3
2023-10-19T08:03:16.347Z,12.4
2023-10-19T08:04:22.471Z,12.4
2023-10-19T08:05:28.622Z,12.4
2023-10-19T08:06:34.835Z,12.4
2023-10-19T08:07:39.932Z,12.4
2023-10-19T08:08:46.072Z,12.5
2023-10-19T08:09:52.218Z,12.5
2023-10-19T08:10:58.381Z,12.6
2023-10-19T08:12:04.505Z,12.7
2023-10-19T08:13:10.642Z,12.7
2023-10-19T08:14:16.798Z,12.7
2023-10-19T08:15:22.928Z,12.8
2023-10-19T08:16:29.086Z,12.9
2023-10-19T08:17:35.210Z,12.9
2023-10-19T08:18:41.344Z,13
2023-10-19T08:19:47.528Z,13
2023-10-19T08:20:53.632Z,13
2023-10-19T08:21:58.797Z,13
2023-10-19T08:23:04.948Z,13
2023-10-19T08:24:11.086Z,13
2023-10-19T08:25:17.218Z,13
2023-10-19T08:26:23.377Z,13
2023-10-19T08:27:29.507Z,13.1
2023-10-19T08:28:35.676Z,13.1
2023-10-19T08:29:41.820Z,13.1
2023-10-19T08:30:47.938Z,13.1
2023-10-19T08:31:54.096Z,13.1
2023-10-19T08:33:00.227Z,13.1
2023-10-19T08:34:06.366Z,13.1
2023-10-19T08:35:12.531Z,13.2
2023-10-19T08:36:17.663Z,13.2
2023-10-19T08:37:23.811Z,13.2
2023-10-19T08:38:29.966Z,13.3
2023-10-19T08:39:36.082Z,13.3
2023-10-19T08:40:42.233Z,13.3
2023-10-19T08:41:48.391Z,13.3
2023-10-19T08:42:54.536Z,13.3
2023-10-19T08:44:00.646Z,13.3
2023-10-19T08:45:06.810Z,13.3
2023-10-19T08:46:12.941Z,13.4
2023-10-19T08:47:19.104Z,13.4
2023-10-19T08:48:25.221Z,13.5
2023-10-19T08:49:31.469Z,13.6
2023-10-19T08:50:36.564Z,13.6
2023-10-19T08:51:42.677Z,13.6
2023-10-19T08:52:48.835Z,13.6
2023-10-19T08:53:54.959Z,13.6
2023-10-19T08:55:01.129Z,13.7
2023-10-19T08:56:07.280Z,13.7
2023-10-19T08:57:12.415Z,13.7
2023-10-19T08:58:18.565Z,13.7
2023-10-19T08:59:24.704Z,13.6
2023-10-19T09:00:30.837Z,13.6
2023-10-19T09:01:37.013Z,13.6
2023-10-19T09:02:43.116Z,13.7
2023-10-19T09:03:49.277Z,13.7
2023-10-19T09:04:55.432Z,13.7
2023-10-19T09:06:01.548Z,13.7
2023-10-19T09:07:07.690Z,13.8
2023-10-19T09:08:13.835Z,13.8
2023-10-19T09:09:19.993Z,13.9
2023-10-19T09:10:26.224Z,13.9
2023-10-19T09:11:31.275Z,14.1
2023-10-19T09:12:37.430Z,14.1
2023-10-19T09:13:43.567Z,14.1
2023-10-19T09:14:49.869Z,14.1
2023-10-19T09:15:55.847Z,14.1
2023-10-19T09:17:01.993Z,14.1
2023-10-19T09:18:08.139Z,14.1
2023-10-19T09:19:14.294Z,14.1
2023-10-19T09:20:20.440Z,14.1
2023-10-19T09:21:26.554Z,14.1
2023-10-19T09:22:32.818Z,14.2
2023-10-19T09:23:38.859Z,14.2
2023-10-19T09:24:44.992Z,14.2
2023-10-19T09:25:50.144Z,14.3
2023-10-19T09:26:56.297Z,14.4
2023-10-19T09:28:02.445Z,14.4
2023-10-19T09:29:08.627Z,14.4
2023-10-19T09:30:14.777Z,14.5
2023-10-19T09:31:20.872Z,14.5
2023-10-19T09:32:27.003Z,14.5
2023-10-19T09:33:33.146Z,14.6
2023-10-19T09:34:39.289Z,14.6
2023-10-19T09:35:45.498Z,14.7
2023-10-19T09:36:51.590Z,14.7
2023-10-19T09:39:03.886Z,14.8
2023-10-19T09:40:09.019Z,14.8
2023-10-19T09:41:15.161Z,14.9
2023-10-19T09:42:21.301Z,14.9
2023-10-19T09:43:27.573Z,14.8
2023-10-19T09:44:33.601Z,14.8
2023-10-19T09:45:39.726Z,14.8
2023-10-19T09:46:45.870Z,14.7
2023-10-19T09:47:52.018Z,14.8
2023-10-19T09:48:58.157Z,14.8
2023-10-19T09:50:04.304Z,14.9
2023-10-19T09:51:10.458Z,14.9
2023-10-19T09:52:16.634Z,15
2023-10-19T09:53:22.750Z,15.5
2023-10-19T09:54:28.929Z,16
2023-10-19T09:55:34.043Z,16.5
2023-10-19T09:56:40.196Z,16.7
2023-10-19T09:57:46.336Z,16.6
2023-10-19T09:58:52.499Z,16.5
2023-10-19T09:59:58.626Z,16.7
2023-10-19T10:01:04.771Z,17
2023-10-19T10:02:10.919Z,17.2
2023-10-19T10:03:17.068Z,17.5
2023-10-19T10:04:23.216Z,17.7
2023-10-19T10:05:29.378Z,17.5
2023-10-19T10:06:35.489Z,17.6
2023-10-19T10:07:41.662Z,17.9
2023-10-19T10:08:47.802Z,18.3
2023-10-19T10:09:52.965Z,18.5
2023-10-19T10:10:59.096Z,18.8
2023-10-19T10:12:05.236Z,19
2023-10-19T10:13:11.379Z,19.1
2023-10-19T10:14:17.546Z,19.8
2023-10-19T10:15:23.669Z,20.8
2023-10-19T10:16:29.826Z,22.1
2023-10-19T10:17:35.948Z,23.1
2023-10-19T10:18:42.102Z,24
2023-10-19T10:19:48.242Z,24.7
2023-10-19T10:20:54.405Z,24.8
2023-10-19T10:22:00.541Z,25.2
2023-10-19T10:23:06.669Z,25.8
2023-10-19T10:24:11.835Z,26.3
2023-10-19T10:25:17.980Z,26.1
2023-10-19T10:26:24.141Z,25.6
2023-10-19T10:27:30.261Z,25.2
2023-10-19T10:28:36.446Z,26.3
2023-10-19T10:29:42.543Z,27
2023-10-19T10:30:48.693Z,27.3
2023-10-19T10:31:54.856Z,27.4
2023-10-19T10:33:00.975Z,27.7
2023-10-19T10:34:07.111Z,27.5
2023-10-19T10:35:13.252Z,27.6
2023-10-19T10:36:19.468Z,28
2023-10-19T10:37:25.670Z,28
2023-10-19T10:38:31.697Z,27.3
2023-10-19T10:39:36.839Z,27
2023-10-19T10:40:42.983Z,27.5
2023-10-19T10:41:49.123Z,27.9
2023-10-19T10:42:55.295Z,27.9
2023-10-19T10:44:01.475Z,28.1
2023-10-19T10:45:07.559Z,28.4
2023-10-19T10:46:13.698Z,28.2
2023-10-19T10:47:19.850Z,28.1
2023-10-19T10:48:25.990Z,27.8
2023-10-19T10:49:32.130Z,27.2
2023-10-19T10:50:38.278Z,26.5
2023-10-19T10:51:44.434Z,26.6
2023-10-19T10:52:50.557Z,26.4
2023-10-19T10:53:55.760Z,25.1
2023-10-19T10:55:01.865Z,23.9
2023-10-19T10:56:08.009Z,22.9
2023-10-19T10:57:14.153Z,22.2
2023-10-19T10:58:20.297Z,21.5
2023-10-19T10:59:26.449Z,21.2
2023-10-19T11:00:32.580Z,21.1
2023-10-19T11:01:38.724Z,22.3
2023-10-19T11:02:44.876Z,22.2
2023-10-19T11:03:51.011Z,22.9
2023-10-19T11:04:57.155Z,24.1
2023-10-19T11:06:03.300Z,24.8
2023-10-19T11:07:09.472Z,24.5
2023-10-19T11:08:14.630Z,23.9
2023-10-19T11:09:20.804Z,23.4
2023-10-19T11:10:26.893Z,22.8
2023-10-19T11:11:33.035Z,22.2
2023-10-19T11:12:39.189Z,21.5
2023-10-19T11:13:45.329Z,20.9
2023-10-19T11:14:51.492Z,20.5
2023-10-19T11:15:57.646Z,20.1
2023-10-19T11:17:03.784Z,19.6
2023-10-19T11:18:09.921Z,19.1
2023-10-19T11:19:16.061Z,18.7
2023-10-19T11:20:22.210Z,18.4
2023-10-19T11:21:28.342Z,18.1
2023-10-19T11:22:33.487Z,18
2023-10-19T11:23:39.663Z,17.9
2023-10-19T11:24:45.797Z,17.8
2023-10-19T11:25:51.919Z,17.8
2023-10-19T11:26:58.078Z,17.7
2023-10-19T11:28:04.221Z,17.6
2023-10-19T11:29:10.441Z,17.5
2023-10-19T11:30:16.503Z,17.5
2023-10-19T11:31:22.674Z,17.5
2023-10-19T11:32:28.802Z,17.5
2023-10-19T11:33:34.933Z,17.5
2023-10-19T11:34:41.081Z,17.5
2023-10-19T11:35:47.207Z,17.4
2023-10-19T11:36:52.370Z,17.4
2023-10-19T11:37:58.540Z,17.4
2023-10-19T11:39:04.648Z,17.5
2023-10-19T11:40:10.786Z,17.5
2023-10-19T11:41:16.945Z,17.5
2023-10-19T11:42:23.085Z,17.6
2023-10-19T11:43:29.229Z,17.7
2023-10-19T11:44:35.390Z,17.8
2023-10-19T11:45:41.518Z,17.8
2023-10-19T11:46:47.693Z,17.9
2023-10-19T11:47:53.820Z,17.9
2023-10-19T11:48:59.968Z,17.8
2023-10-19T11:50:06.096Z,17.8
2023-10-19T11:51:11.260Z,17.8
2023-10-19T11:52:17.393Z,17.8
2023-10-19T11:53:23.551Z,17.9
2023-10-19T11:54:29.752Z,17.8
2023-10-19T11:55:35.822Z,17.8
2023-10-19T11:56:41.972Z,17.8
2023-10-19T11:57:48.106Z,17.8
2023-10-19T11:58:54.236Z,17.8
2023-10-19T12:00:00.410Z,17.8
2023-10-19T12:01:06.564Z,17.8
2023-10-19T12:02:12.818Z,17.8
2023-10-19T12:03:18.832Z,17.9
2023-10-19T12:04:25.036Z,17.9
2023-10-19T12:05:31.140Z,17.9
2023-10-19T12:06:36.344Z,18
2023-10-19T12:07:42.412Z,18
2023-10-19T12:08:48.545Z,18.1
2023-10-19T12:09:54.712Z,18.2
2023-10-19T12:11:00.850Z,18.3
2023-10-19T12:12:06.976Z,18.3
2023-10-19T12:13:13.157Z,18.3
2023-10-19T12:14:19.358Z,18.3
2023-10-19T12:15:25.585Z,18.2
2023-10-19T12:16:31.930Z,18.2
2023-10-19T12:17:37.972Z,18.1
2023-10-19T12:18:44.097Z,18.1
2023-10-19T12:19:50.260Z,18
2023-10-19T12:20:55.469Z,17.9
2023-10-19T12:22:01.674Z,17.9
2023-10-19T12:23:07.529Z,17.9
2023-10-19T12:24:14.173Z,18
2023-10-19T12:25:19.961Z,18
2023-10-19T12:26:26.079Z,18
2023-10-19T12:27:32.163Z,18
2023-10-19T12:28:38.453Z,18
2023-10-19T12:29:44.670Z,17.9
2023-10-19T12:30:50.625Z,17.8
2023-10-19T12:31:56.837Z,17.7
2023-10-19T12:33:02.712Z,17.6
2023-10-19T12:34:08.837Z,17.5
2023-10-19T12:35:14.095Z,17.5
2023-10-19T12:36:20.357Z,17.5
2023-10-19T12:37:26.286Z,17.5
2023-10-19T12:38:31.633Z,17.5
2023-10-19T12:39:37.689Z,17.4
2023-10-19T12:40:43.826Z,17.5
2023-10-19T12:41:50.033Z,17.5
2023-10-19T12:42:56.131Z,17.5
2023-10-19T12:44:02.300Z,17.5
2023-10-19T12:45:08.292Z,17.5
2023-10-19T12:46:14.473Z,17.6
2023-10-19T12:47:20.591Z,17.6
2023-10-19T12:48:26.877Z,17.6
2023-10-19T12:49:32.928Z,17.5
2023-10-19T12:50:39.156Z,17.5
2023-10-19T12:51:45.156Z,17.5
2023-10-19T12:52:50.362Z,17.6
2023-10-19T12:53:56.524Z,17.7
2023-10-19T12:55:02.622Z,17.7
2023-10-19T12:56:08.809Z,17.8
2023-10-19T12:57:15.001Z,17.8
2023-10-19T12:58:21.048Z,17.9
2023-10-19T12:59:27.201Z,18.1
2023-10-19T13:00:33.470Z,18.2
2023-10-19T13:01:39.844Z,18.3
2023-10-19T13:02:45.818Z,18.4
2023-10-19T13:03:51.938Z,18.5
2023-10-19T13:04:58.063Z,18.6
2023-10-19T13:06:04.376Z,18.7
2023-10-19T13:07:09.448Z,18.6
2023-10-19T13:08:15.520Z,18.6
2023-10-19T13:09:21.647Z,18.5
2023-10-19T13:10:27.778Z,18.5
2023-10-19T13:11:34.001Z,18.5
2023-10-19T13:12:40.140Z,18.5
2023-10-19T13:13:46.315Z,18.5
2023-10-19T13:14:52.389Z,18.5
2023-10-19T13:15:58.604Z,18.5
2023-10-19T13:17:04.635Z,18.5
2023-10-19T13:18:10.779Z,18.4
2023-10-19T13:19:16.928Z,18.3
2023-10-19T13:20:23.085Z,18.3
2023-10-19T13:21:29.255Z,18.3
2023-10-19T13:22:34.389Z,18.4
2023-10-19T13:23:40.549Z,18.4
2023-10-19T13:24:46.671Z,18.4
2023-10-19T13:25:52.834Z,18.4
2023-10-19T13:26:59.165Z,18.4
2023-10-19T13:28:05.105Z,18.4
2023-10-19T13:29:11.281Z,18.3
2023-10-19T13:30:17.416Z,18.3
2023-10-19T13:31:23.599Z,18.3
2023-10-19T13:32:29.736Z,18.3
2023-10-19T13:33:35.799Z,18.3
2023-10-19T13:34:41.945Z,18.3
2023-10-19T13:35:48.101Z,18.3
2023-10-19T13:36:53.242Z,18.3
2023-10-19T13:37:59.388Z,18.3
2023-10-19T13:39:05.527Z,18.3
2023-10-19T13:40:11.689Z,18.3
2023-10-19T13:41:17.843Z,18.3
2023-10-19T13:42:23.950Z,18.4
2023-10-19T13:43:30.115Z,18.4
2023-10-19T13:44:36.364Z,18.5
2023-10-19T13:45:42.394Z,18.5
2023-10-19T13:46:48.579Z,18.6
2023-10-19T13:47:54.667Z,18.6
2023-10-19T13:49:00.801Z,18.6
2023-10-19T13:50:06.939Z,18.6
2023-10-19T13:51:12.102Z,18.6
2023-10-19T13:52:18.295Z,18.5
2023-10-19T13:53:24.406Z,18.4
2023-10-19T13:54:30.549Z,18.3
2023-10-19T13:55:36.693Z,18.3
2023-10-19T13:56:42.816Z,18.1
2023-10-19T13:57:48.980Z,18.1
2023-10-19T13:58:55.108Z,18.1
2023-10-19T14:00:01.241Z,18.1
2023-10-19T14:01:07.420Z,18.2
2023-10-19T14:02:13.691Z,18.2
2023-10-19T14:03:19.847Z,18.2
2023-10-19T14:04:25.832Z,18.2
2023-10-19T14:05:31.960Z,18.2
2023-10-19T14:06:37.120Z,18.2
2023-10-19T14:07:43.257Z,18.2
2023-10-19T14:08:49.444Z,18.1
2023-10-19T14:09:55.558Z,18
2023-10-19T14:11:01.728Z,17.9
2023-10-19T14:12:07.833Z,17.9
2023-10-19T14:13:14.070Z,17.8
2023-10-19T14:14:20.122Z,17.8
2023-10-19T14:15:26.256Z,17.8
2023-10-19T14:16:32.454Z,17.8
2023-10-19T14:17:38.570Z,17.8
2023-10-19T14:18:44.687Z,17.9
2023-10-19T14:19:50.842Z,17.9
2023-10-19T14:20:55.999Z,17.9
2023-10-19T14:22:02.135Z,17.9
2023-10-19T14:23:08.285Z,17.9
2023-10-19T14:24:14.456Z,18
2023-10-19T14:25:20.596Z,18.1
2023-10-19T14:26:26.711Z,18
2023-10-19T14:27:32.851Z,18.1
2023-10-19T14:28:39.045Z,18.1
2023-10-19T14:29:45.180Z,18
2023-10-19T14:30:51.273Z,18
2023-10-19T14:31:57.433Z,17.9
2023-10-19T14:33:03.571Z,17.8
2023-10-19T14:34:09.746Z,17.8
2023-10-19T14:35:14.872Z,17.8
2023-10-19T14:36:21.011Z,17.7
2023-10-19T14:37:27.146Z,17.7
2023-10-19T14:38:33.308Z,17.6
2023-10-19T14:39:39.453Z,17.6
2023-10-19T14:40:45.588Z,17.5
2023-10-19T14:41:51.849Z,17.5
2023-10-19T14:42:57.950Z,17.4
2023-10-19T14:44:04.103Z,17.4
2023-10-19T14:45:10.157Z,17.3
2023-10-19T14:46:16.301Z,17.3
2023-10-19T14:47:22.456Z,17.2
2023-10-19T14:48:28.806Z,17.1
2023-10-19T14:49:33.924Z,17.1
2023-10-19T14:50:39.986Z,17
2023-10-19T14:51:46.026Z,17
2023-10-19T14:52:52.206Z,16.9
2023-10-19T14:53:58.307Z,16.8
2023-10-19T14:55:04.473Z,16.8
2023-10-19T14:56:10.633Z,16.8
2023-10-19T14:57:16.744Z,16.8